Flight Track Log - Related Links

Times and Time Zones

All times are in EDT time to prevent confusion due to time zone crossing. See the VH-JET flight status page for this flight to view local times or setup timezone preferences in your user account.

Time Position Orientation Groundspeed Altitude Reporting Facility
EDT Latitude Longitude Course Direction KTS MPH feet Rate Location/Type
Thu 11:44:13 PM -30.5387 151.6009 233° Southwest 120 138 4,400  Level Aus ATC (RADAR)
Thu 11:45:27 PM -30.5663 151.5589 233° Southwest 130 150 6,800 1,829 Climbing Aus ATC (RADAR)
Thu 11:45:58 PM -30.5836 151.5468 211° Southwest 142 163 7,600 1,813 Climbing Aus ATC (RADAR)
Thu 11:47:03 PM -30.6131 151.5145 223° Southwest 131 151 9,700 1,811 Climbing Aus ATC (RADAR)
Thu 11:48:47 PM -30.6601 151.4574 226° Southwest 139 160 12,700 1,700 Climbing Aus ATC (RADAR)
Thu 11:49:03 PM -30.6670 151.4487 227° Southwest 143 165 13,100 1,800 Climbing Aus ATC (RADAR)
Thu 11:49:37 PM -30.6833 151.4287 226° Southwest 146 168 14,200 1,660 Climbing Aus ATC (RADAR)
Thu 11:50:37 PM -30.7119 151.3933 227° Southwest 152 175 15,700 1,533 Climbing Aus ATC (RADAR)
Thu 11:51:07 PM -30.7264 151.3751 227° Southwest 152 175 16,500 1,674 Climbing Aus ATC (RADAR)
Thu 11:52:03 PM -30.7521 151.3411 229° Southwest 151 174 18,100 1,691 Climbing Aus ATC (RADAR)
Thu 11:52:57 PM -30.7787 151.3070 228° Southwest 156 180 19,600 1,576 Climbing Aus ATC (RADAR)
Thu 11:53:42 PM -30.8049 151.2807 221° Southwest 164 189 20,700 1,425 Climbing Aus ATC (RADAR)
Thu 11:54:17 PM -30.8253 151.2596 222° Southwest 168 193 21,500 1,389 Climbing Aus ATC (RADAR)
Thu 11:55:17 PM -30.8563 151.2208 227° Southwest 164 189 22,900 1,453 Climbing Aus ATC (RADAR)
Thu 11:55:52 PM -30.8740 151.1976 228° Southwest 163 188 23,800 632 Climbing Aus ATC (RADAR)
Thu 11:56:52 PM -30.9089 151.1521 228° Southwest 199 229 23,900 48 Climbing Aus ATC (RADAR)
Thu 11:57:56 PM -30.9557 151.0932 227° Southwest 234 269 23,900  Level Aus ATC (RADAR)
Thu 11:58:36 PM -30.9858 151.0558 227° Southwest 237 273 23,900  Level Aus ATC (RADAR)
Thu 11:58:56 PM -31.0012 151.0364 227° Southwest 243 280 23,900  Level Aus ATC (RADAR)
Thu 11:59:31 PM -31.0282 151.0031 227° Southwest 243 280 23,900  Level Aus ATC (RADAR)
Fri 12:00:16 AM -31.0631 150.9597 227° Southwest 245 282 23,900  Level Aus ATC (RADAR)
Fri 12:00:56 AM -31.0943 150.9211 227° Southwest 246 283 23,900  Level Aus ATC (RADAR)
Fri 12:01:51 AM -31.1373 150.8670 227° Southwest 249 287 23,900  Level Aus ATC (RADAR)
Fri 12:02:51 AM -31.1842 150.8096 226° Southwest 246 283 23,900  Level Aus ATC (RADAR)
Fri 12:03:34 AM -31.2172 150.7674 228° Southwest 237 273 23,900  Level Aus ATC (RADAR)
Fri 12:03:51 AM -31.2301 150.7516 226° Southwest 244 281 23,900  Level Aus ATC (RADAR)
Fri 12:04:26 AM -31.2569 150.7181 227° Southwest 243 280 23,900  Level Aus ATC (RADAR)
Fri 12:05:19 AM -31.2960 150.6696 227° Southwest 247 284 23,900  Level Aus ATC (RADAR)
Fri 12:05:53 AM -31.3140 150.6469 227° Southwest 241 277 23,900  Level Aus ATC (RADAR)
Fri 12:06:43 AM -31.3352 150.6208 227° Southwest 248 285 23,900  Level Aus ATC (RADAR)
Fri 12:08:00 AM -31.4242 150.5092 227° Southwest 244 281 23,900  Level Aus ATC (RADAR)
Fri 12:08:40 AM -31.4566 150.4682 227° Southwest 248 285 23,900  Level Aus ATC (RADAR)
Fri 12:08:56 AM -31.4684 150.4534 227° Southwest 248 285 23,900  Level Aus ATC (RADAR)
Fri 12:09:30 AM -31.4957 150.4189 227° Southwest 248 285 23,900  Level Aus ATC (RADAR)
Fri 12:10:20 AM -31.5349 150.3697 227° Southwest 249 287 23,900  Level Aus ATC (RADAR)
Fri 12:10:55 AM -31.5623 150.3352 227° Southwest 248 285 23,900  Level Aus ATC (RADAR)
Fri 12:11:55 AM -31.6091 150.2764 227° Southwest 247 284 23,900  Level Aus ATC (RADAR)
Fri 12:12:49 AM -31.6505 150.2244 227° Southwest 243 280 23,900  Level Aus ATC (RADAR)
Fri 12:13:25 AM -31.6793 150.1876 227° Southwest 249 287 23,900  Level Aus ATC (RADAR)
Fri 12:13:40 AM -31.6910 150.1731 227° Southwest 248 285 23,900  Level Aus ATC (RADAR)
Fri 12:14:15 AM -31.7185 150.1387 227° Southwest 248 285 23,900  Level Aus ATC (RADAR)
Fri 12:17:51 AM -31.8868 149.9249 227° Southwest 247 284 23,900 -38 Level Aus ATC (RADAR)
Fri 12:19:28 AM -31.9632 149.8275 227° Southwest 245 282 23,700  Descending Aus ATC (RADAR)
Fri 12:21:09 AM -32.0423 149.7264 227° Southwest 248 285 23,900 66 Climbing Aus ATC (RADAR)
Fri 12:22:29 AM -32.1043 149.6469 227° Southwest 249 287 23,900 -121 Level Aus ATC (RADAR)
Fri 12:22:48 AM -32.1182 149.6289 228° Southwest 244 281 23,700  Descending Aus ATC (RADAR)
Fri 12:25:19 AM -32.2369 149.4762 227° Southwest 249 287 23,900 51 Climbing Aus ATC (RADAR)
Fri 12:26:43 AM -32.3026 149.3914 227° Southwest 248 285 23,900  Level Aus ATC (RADAR)
Fri 12:26:58 AM -32.3142 149.3765 227° Southwest 248 285 23,900  Level Aus ATC (RADAR)
Fri 12:28:28 AM -32.3839 149.2864 228° Southwest 249 287 23,900 -49 Level Aus ATC (RADAR)
Fri 12:31:04 AM -32.5026 149.1321 228° Southwest 245 282 23,700  Descending Aus ATC (RADAR)
Fri 12:32:23 AM -32.5659 149.0493 228° Southwest 250 288 23,900 128 Climbing Aus ATC (RADAR)
Fri 12:32:38 AM -32.5775 149.0341 228° Southwest 250 288 23,900 -162 Level Aus ATC (RADAR)
Fri 12:33:37 AM -32.6221 148.9763 227° Southwest 243 280 23,700 -126 Descending Aus ATC (RADAR)
Fri 12:34:13 AM -32.6503 148.9393 228° Southwest 246 283 23,700  Level Aus ATC (RADAR)
Fri 12:34:58 AM -32.6847 148.8945 228° Southwest 247 284 23,700  Level Aus ATC (RADAR)
Fri 12:35:52 AM -32.7270 148.8388 228° Southwest 249 287 23,700  Level Aus ATC (RADAR)
Fri 12:36:37 AM -32.7616 148.7938 228° Southwest 248 285 23,700  Level Aus ATC (RADAR)
Fri 12:37:12 AM -32.7883 148.7580 228° Southwest 248 285 23,700  Level Aus ATC (RADAR)
Fri 12:38:16 AM -32.8369 148.6944 228° Southwest 244 281 23,700  Level Aus ATC (RADAR)
Fri 12:38:52 AM -32.8657 148.6562 228° Southwest 250 288 23,700  Level Aus ATC (RADAR)
Fri 12:39:52 AM -32.9124 148.5949 228° Southwest 251 289 23,700 -360 Level Aus ATC (RADAR)
Fri 12:41:22 AM -32.9827 148.5015 228° Southwest 254 292 22,800 -661 Descending Aus ATC (RADAR)
Fri 12:41:41 AM -32.9958 148.4841 228° Southwest 243 280 22,500 -1,111 Descending Aus ATC (RADAR)
Fri 12:42:16 AM -33.0204 148.4511 228° Southwest 229 264 21,800 -1,125 Descending Aus ATC (RADAR)
Fri 12:43:17 AM -33.0606 148.3926 231° Southwest 220 253 20,700 -1,125 Descending Aus ATC (RADAR)
Fri 12:43:52 AM -33.0829 148.3600 231° Southwest 218 251 20,000 -1,102 Descending Aus ATC (RADAR)
Fri 12:44:55 AM -33.1231 148.3021 230° Southwest 214 246 18,900 -1,208 Descending Aus ATC (RADAR)
Fri 12:46:21 AM -33.1784 148.2213 231° Southwest 223 257 17,000 -1,417 Descending Aus ATC (RADAR)
Fri 12:47:02 AM -33.2047 148.1831 231° Southwest 227 261 15,900 -1,389 Descending Aus ATC (RADAR)
Fri 12:47:56 AM -33.2405 148.1311 231° Southwest 222 255 14,800 -1,212 Descending Aus ATC (RADAR)
Fri 12:48:46 AM -33.2724 148.0848 230° Southwest 217 250 13,800 -1,129 Descending Aus ATC (RADAR)
Fri 12:49:21 AM -33.2943 148.0525 231° Southwest 215 247 13,200 -1,067 Descending Aus ATC (RADAR)
Fri 12:50:16 AM -33.3280 148.0033 231° Southwest 208 239 12,200 -1,071 Descending Aus ATC (RADAR)
Fri 12:51:41 AM -33.3783 147.9297 231° Southwest 200 230 10,700 -1,080 Descending Aus ATC (RADAR)
Fri 12:51:56 AM -33.3863 147.9181 230° Southwest 194 223 10,400 -1,080 Descending Aus ATC (RADAR)
Fri 12:52:31 AM -33.4069 147.8865 232° Southwest 203 234 9,800 -1,011 Descending Aus ATC (RADAR)
Fri 12:53:31 AM -33.4403 147.8383 230° Southwest 195 224 8,800 -918 Descending Aus ATC (RADAR)
Fri 12:54:09 AM -33.4603 147.8093 231° Southwest 185 213 8,300 -970 Descending Aus ATC (RADAR)
Fri 12:55:10 AM -33.4933 147.7600 231° Southwest 181 208 7,200 -937 Descending Aus ATC (RADAR)
Fri 12:57:34 AM -33.5629 147.6573 231° Southwest 180 207 5,100 -841 Descending Aus ATC (RADAR)
Fri 12:57:54 AM -33.5724 147.6435 231° Southwest 180 207 4,900 -600 Descending Aus ATC (RADAR)

Login

Don't have an account? Register now (free) for customized features, flight alerts, and more!